Edson, Wisconsin
Current Conditions -  °F | °C
As of 11:56 PM on Thursday 30 Oct 2014 (Local Time) from KEAU Reporting Station
Clear Clear  
Wind Chill: 23°   Ceiling: Unl
Heat Index: 32°   Visibility: 10mi
Dew Point: 18°   Wind: 13mph
Humidity: 56%   Direction: 330°NNW
Pressure: 30.25"   Gusts: 22mph
Location:  44.9343°N, 91.0261°W
Report Text: KEAU 310456Z AUTO 33011G19KT 10SM CLR 00/M08 A3025 RMK AO2 SLP252 T00001078
Loading
Personal Weather Stations






























Interactive Weather Map
Tropical Storm Tracking
New forecast layout! Learn more

10-Day Weather Forecast

Advertisements
Track Severe Weather on mobile